Farwell, Michigan
Current Conditions -  °F | °C
As of 10:15 AM on Thursday 18 Dec 2014 (Local Time) from KMOP Reporting Station
Overcast Overcast  
Wind Chill: 24°   Ceiling: 1300
Heat Index: 29°   Visibility: 10mi
Dew Point: 25°   Wind: 5mph
Humidity: 83%   Direction: 330°NNW
Pressure: 30.21"   Gusts: NA
Location:  43.84°N, 84.87°W
Report Text: KMOP 181515Z AUTO 33004KT 10SM OVC013 M01/M04 A3021 RMK AO2 T10151040
Loading
Personal Weather Stations






























Interactive Weather Map New forecast layout! Learn more

10-Day Weather Forecast

Advertisements
Track Severe Weather on mobile